sensor_id;sensor_type;location;lat;lon;timestamp;P1;durP1;ratioP1;P2;durP2;ratioP2
3831;SDS011;12460;42.662;23.288;2024-02-26T00:10:08;19.37;;;13.50;;
3831;SDS011;12460;42.662;23.288;2024-02-26T00:25:10;15.70;;;11.00;;
3831;SDS011;12460;42.662;23.288;2024-02-26T00:40:14;18.10;;;11.87;;
3831;SDS011;12460;42.662;23.288;2024-02-26T00:55:16;17.70;;;12.83;;
3831;SDS011;12460;42.662;23.288;2024-02-26T01:10:18;17.20;;;12.50;;
3831;SDS011;12460;42.662;23.288;2024-02-26T01:25:19;18.33;;;13.90;;
3831;SDS011;12460;42.662;23.288;2024-02-26T01:40:21;16.30;;;12.90;;
3831;SDS011;12460;42.662;23.288;2024-02-26T01:55:23;21.60;;;13.67;;
3831;SDS011;12460;42.662;23.288;2024-02-26T02:10:26;19.80;;;14.00;;
3831;SDS011;12460;42.662;23.288;2024-02-26T02:25:28;19.30;;;13.40;;
3831;SDS011;12460;42.662;23.288;2024-02-26T02:40:30;19.60;;;14.40;;
3831;SDS011;12460;42.662;23.288;2024-02-26T02:55:32;21.50;;;15.13;;
3831;SDS011;12460;42.662;23.288;2024-02-26T03:10:33;19.13;;;14.30;;
3831;SDS011;12460;42.662;23.288;2024-02-26T03:25:35;14.73;;;12.40;;
3831;SDS011;12460;42.662;23.288;2024-02-26T03:40:38;17.93;;;13.13;;
3831;SDS011;12460;42.662;23.288;2024-02-26T03:55:40;18.20;;;14.13;;
3831;SDS011;12460;42.662;23.288;2024-02-26T04:10:43;18.20;;;13.50;;
3831;SDS011;12460;42.662;23.288;2024-02-26T04:25:45;19.10;;;15.40;;
3831;SDS011;12460;42.662;23.288;2024-02-26T04:40:47;15.77;;;13.33;;
3831;SDS011;12460;42.662;23.288;2024-02-26T04:55:49;22.23;;;16.33;;
3831;SDS011;12460;42.662;23.288;2024-02-26T05:10:50;22.37;;;17.87;;
3831;SDS011;12460;42.662;23.288;2024-02-26T05:25:52;25.77;;;17.80;;
3831;SDS011;12460;42.662;23.288;2024-02-26T05:40:54;24.87;;;19.07;;
3831;SDS011;12460;42.662;23.288;2024-02-26T05:55:56;29.50;;;21.63;;
3831;SDS011;12460;42.662;23.288;2024-02-26T06:10:58;29.17;;;22.33;;
3831;SDS011;12460;42.662;23.288;2024-02-26T06:25:59;28.63;;;21.93;;
3831;SDS011;12460;42.662;23.288;2024-02-26T06:41:01;36.80;;;24.70;;
3831;SDS011;12460;42.662;23.288;2024-02-26T06:56:04;31.27;;;22.30;;
3831;SDS011;12460;42.662;23.288;2024-02-26T07:11:07;24.63;;;17.30;;
3831;SDS011;12460;42.662;23.288;2024-02-26T07:26:10;21.03;;;16.33;;
3831;SDS011;12460;42.662;23.288;2024-02-26T07:41:13;18.67;;;14.03;;
3831;SDS011;12460;42.662;23.288;2024-02-26T07:56:15;19.27;;;15.20;;
3831;SDS011;12460;42.662;23.288;2024-02-26T08:11:18;17.47;;;14.90;;
3831;SDS011;12460;42.662;23.288;2024-02-26T08:26:20;24.90;;;18.77;;
3831;SDS011;12460;42.662;23.288;2024-02-26T08:41:23;35.87;;;27.30;;
3831;SDS011;12460;42.662;23.288;2024-02-26T08:56:25;35.50;;;28.47;;
3831;SDS011;12460;42.662;23.288;2024-02-26T09:11:27;38.23;;;28.40;;
3831;SDS011;12460;42.662;23.288;2024-02-26T09:26:29;11.50;;;8.37;;
3831;SDS011;12460;42.662;23.288;2024-02-26T09:41:31;14.00;;;9.80;;
3831;SDS011;12460;42.662;23.288;2024-02-26T09:56:33;8.27;;;7.47;;
3831;SDS011;12460;42.662;23.288;2024-02-26T10:11:38;11.20;;;8.33;;
3831;SDS011;12460;42.662;23.288;2024-02-26T10:26:47;9.63;;;7.83;;
3831;SDS011;12460;42.662;23.288;2024-02-26T10:41:50;14.97;;;8.97;;
3831;SDS011;12460;42.662;23.288;2024-02-26T10:56:52;10.83;;;8.40;;
3831;SDS011;12460;42.662;23.288;2024-02-26T11:11:57;10.20;;;8.87;;
3831;SDS011;12460;42.662;23.288;2024-02-26T11:27:01;9.23;;;8.23;;
3831;SDS011;12460;42.662;23.288;2024-02-26T11:42:08;9.60;;;8.70;;
3831;SDS011;12460;42.662;23.288;2024-02-26T12:12:30;9.00;;;7.10;;
3831;SDS011;12460;42.662;23.288;2024-02-26T12:27:32;8.37;;;7.10;;
3831;SDS011;12460;42.662;23.288;2024-02-26T12:42:35;9.00;;;6.80;;
3831;SDS011;12460;42.662;23.288;2024-02-26T12:57:43;7.83;;;6.63;;
3831;SDS011;12460;42.662;23.288;2024-02-26T13:12:47;6.70;;;5.83;;
3831;SDS011;12460;42.662;23.288;2024-02-26T13:28:05;7.43;;;6.13;;
3831;SDS011;12460;42.662;23.288;2024-02-26T13:43:11;6.30;;;5.70;;
3831;SDS011;12460;42.662;23.288;2024-02-26T13:58:13;6.20;;;5.60;;
3831;SDS011;12460;42.662;23.288;2024-02-26T14:13:16;7.47;;;5.83;;
3831;SDS011;12460;42.662;23.288;2024-02-26T14:28:18;7.37;;;5.27;;
3831;SDS011;12460;42.662;23.288;2024-02-26T14:43:25;8.47;;;5.90;;
3831;SDS011;12460;42.662;23.288;2024-02-26T14:58:27;5.50;;;4.90;;
3831;SDS011;12460;42.662;23.288;2024-02-26T15:13:29;6.10;;;5.50;;
3831;SDS011;12460;42.662;23.288;2024-02-26T15:28:31;8.47;;;5.50;;
3831;SDS011;12460;42.662;23.288;2024-02-26T15:43:33;7.87;;;6.80;;
3831;SDS011;12460;42.662;23.288;2024-02-26T15:58:34;7.07;;;6.30;;
3831;SDS011;12460;42.662;23.288;2024-02-26T16:13:37;10.67;;;7.53;;
3831;SDS011;12460;42.662;23.288;2024-02-26T16:28:39;7.97;;;7.07;;
3831;SDS011;12460;42.662;23.288;2024-02-26T16:43:41;9.80;;;7.73;;
3831;SDS011;12460;42.662;23.288;2024-02-26T16:58:43;13.83;;;8.40;;
3831;SDS011;12460;42.662;23.288;2024-02-26T17:13:45;16.17;;;8.57;;
3831;SDS011;12460;42.662;23.288;2024-02-26T17:28:47;12.20;;;9.90;;
3831;SDS011;12460;42.662;23.288;2024-02-26T17:43:49;14.90;;;10.37;;
3831;SDS011;12460;42.662;23.288;2024-02-26T17:58:51;13.80;;;9.27;;
3831;SDS011;12460;42.662;23.288;2024-02-26T18:13:53;9.30;;;7.63;;
3831;SDS011;12460;42.662;23.288;2024-02-26T18:28:55;10.53;;;7.90;;
3831;SDS011;12460;42.662;23.288;2024-02-26T18:43:57;11.33;;;8.37;;
3831;SDS011;12460;42.662;23.288;2024-02-26T18:58:58;11.20;;;8.43;;
3831;SDS011;12460;42.662;23.288;2024-02-26T19:14:00;10.30;;;7.97;;
3831;SDS011;12460;42.662;23.288;2024-02-26T19:29:03;12.77;;;8.50;;
3831;SDS011;12460;42.662;23.288;2024-02-26T19:44:10;11.07;;;8.40;;
3831;SDS011;12460;42.662;23.288;2024-02-26T19:59:14;11.93;;;9.30;;
3831;SDS011;12460;42.662;23.288;2024-02-26T20:14:16;10.37;;;9.30;;
3831;SDS011;12460;42.662;23.288;2024-02-26T20:29:18;13.60;;;10.13;;
3831;SDS011;12460;42.662;23.288;2024-02-26T20:44:20;14.50;;;11.67;;
3831;SDS011;12460;42.662;23.288;2024-02-26T20:59:22;18.07;;;13.47;;
3831;SDS011;12460;42.662;23.288;2024-02-26T21:14:24;18.70;;;13.47;;
3831;SDS011;12460;42.662;23.288;2024-02-26T21:29:26;18.23;;;13.00;;
3831;SDS011;12460;42.662;23.288;2024-02-26T21:44:27;20.57;;;13.23;;
3831;SDS011;12460;42.662;23.288;2024-02-26T21:59:29;16.47;;;12.27;;
3831;SDS011;12460;42.662;23.288;2024-02-26T22:14:31;20.20;;;12.30;;
3831;SDS011;12460;42.662;23.288;2024-02-26T22:29:33;15.10;;;10.57;;
3831;SDS011;12460;42.662;23.288;2024-02-26T22:44:37;15.13;;;11.60;;
3831;SDS011;12460;42.662;23.288;2024-02-26T22:59:40;15.67;;;11.30;;
3831;SDS011;12460;42.662;23.288;2024-02-26T23:14:42;13.93;;;11.73;;
3831;SDS011;12460;42.662;23.288;2024-02-26T23:29:44;12.57;;;11.03;;
3831;SDS011;12460;42.662;23.288;2024-02-26T23:44:45;14.93;;;11.40;;
3831;SDS011;12460;42.662;23.288;2024-02-26T23:59:47;16.33;;;11.60;;
